Time;durP1;ratioP1;P1;durP2;ratioP2;P2;SDS_P1;SDS_P2;PMS_P1;PMS_P2;Temp;Humidity;BMP_temperature;BMP_pressure;BME280_temperature;BME280_humidity;BME280_pressure;Samples;Min_cycle;Max_cycle;Signal;HPM_P1;HPM_P2
2024/03/02 00:01:56;;;;;;;4.95;2.20;;;8.60;72.30;;;;;;9182765;19;20013;-66
2024/03/02 00:05:05;;;;;;;3.30;2.38;;;8.60;72.30;;;;;;9183413;19;20018;-66
2024/03/02 00:08:12;;;;;;;4.88;2.55;;;8.60;72.40;;;;;;9182627;19;20023;-66
2024/03/02 00:11:18;;;;;;;4.32;2.25;;;8.60;72.40;;;;;;9182239;19;20011;-65
2024/03/02 00:14:26;;;;;;;5.45;2.20;;;8.50;72.40;;;;;;9176938;19;20014;-65
2024/03/02 00:17:32;;;;;;;2.83;1.90;;;8.60;72.50;;;;;;9183457;19;20030;-64
2024/03/02 00:20:42;;;;;;;4.82;2.50;;;8.60;72.60;;;;;;9182390;19;20018;-64
2024/03/02 00:23:56;;;;;;;6.57;1.92;;;8.60;72.60;;;;;;9181565;19;20363;-65
2024/03/02 00:27:07;;;;;;;7.95;2.30;;;8.60;72.60;;;;;;9181582;19;20022;-64
2024/03/02 00:30:53;;;;;;;4.80;2.08;;;8.60;72.70;;;;;;9179369;19;20015;-65
2024/03/02 00:34:10;;;;;;;4.47;2.30;;;8.60;72.70;;;;;;9179636;19;20010;-66
2024/03/02 00:37:19;;;;;;;5.75;2.00;;;8.60;72.70;;;;;;9180632;19;20010;-65
2024/03/02 00:40:32;;;;;;;3.47;2.55;;;8.60;72.80;;;;;;9181034;19;20014;-65
2024/03/02 00:43:50;;;;;;;2.58;1.85;;;8.60;72.80;;;;;;9180901;19;20025;-65
2024/03/02 00:46:57;;;;;;;2.75;1.90;;;8.60;72.80;;;;;;9180943;19;20014;-66
2024/03/02 00:50:03;;;;;;;4.32;2.05;;;8.60;72.80;;;;;;9181074;19;20014;-65
2024/03/02 00:53:28;;;;;;;4.70;2.28;;;8.60;72.90;;;;;;9180384;19;20124;-65
2024/03/02 00:56:34;;;;;;;5.47;2.10;;;8.60;72.90;;;;;;9177062;19;20026;-65
2024/03/02 00:59:42;;;;;;;5.57;2.25;;;8.60;72.80;;;;;;9179199;19;20015;-65
2024/03/02 01:02:48;;;;;;;4.05;2.03;;;8.70;72.90;;;;;;9180893;19;20018;-65
2024/03/02 01:05:55;;;;;;;2.67;1.90;;;8.70;73.00;;;;;;9179809;19;20383;-65
2024/03/02 01:09:04;;;;;;;4.22;2.17;;;8.70;73.00;;;;;;9179020;19;20474;-65
2024/03/02 01:12:11;;;;;;;3.58;2.20;;;8.70;73.00;;;;;;9179608;19;20026;-65
2024/03/02 01:15:17;;;;;;;6.03;2.47;;;8.70;73.00;;;;;;9172733;19;20487;-66
2024/03/02 01:18:25;;;;;;;3.17;2.20;;;8.70;73.00;;;;;;9179571;19;20018;-67
2024/03/02 01:21:31;;;;;;;3.63;2.35;;;8.70;73.00;;;;;;9180183;19;20472;-65
2024/03/02 01:24:41;;;;;;;3.15;2.17;;;8.70;73.00;;;;;;9178452;19;20014;-65
2024/03/02 01:27:47;;;;;;;3.65;2.22;;;8.70;73.00;;;;;;9178506;19;20743;-65
2024/03/02 01:30:56;;;;;;;6.82;2.53;;;8.70;73.10;;;;;;9179284;19;20014;-65
2024/03/02 01:34:02;;;;;;;3.53;2.28;;;8.70;73.00;;;;;;9178038;19;20029;-65
2024/03/02 01:37:10;;;;;;;2.88;2.10;;;8.70;73.00;;;;;;9178138;19;20022;-65
2024/03/02 01:40:18;;;;;;;2.85;2.00;;;8.70;73.00;;;;;;9178748;19;20014;-66
2024/03/02 01:43:26;;;;;;;2.55;2.10;;;8.70;73.10;;;;;;9178967;19;20159;-65
2024/03/02 01:46:32;;;;;;;4.25;2.38;;;8.70;73.00;;;;;;9177184;19;20011;-65
2024/03/02 01:49:40;;;;;;;3.42;2.25;;;8.70;73.10;;;;;;9178020;19;20022;-65
2024/03/02 01:52:46;;;;;;;3.25;2.30;;;8.70;73.10;;;;;;9178058;19;20019;-65
2024/03/02 01:55:57;;;;;;;5.55;2.38;;;8.70;73.10;;;;;;9175806;19;20015;-65
2024/03/02 01:59:03;;;;;;;9.02;2.25;;;8.70;73.10;;;;;;9179336;19;20009;-65
2024/03/02 02:02:11;;;;;;;3.47;2.10;;;8.70;73.10;;;;;;9178262;19;20033;-65
2024/03/02 02:05:17;;;;;;;7.60;2.40;;;8.70;73.10;;;;;;9178498;19;20018;-66
2024/03/02 02:08:24;;;;;;;9.95;2.17;;;8.70;73.30;;;;;;9178216;19;20019;-66
2024/03/02 02:11:32;;;;;;;3.80;2.00;;;8.70;73.20;;;;;;9175935;19;20022;-65
2024/03/02 02:14:40;;;;;;;4.43;2.47;;;8.70;73.20;;;;;;9173097;19;20632;-67
2024/03/02 02:17:45;;;;;;;4.68;2.72;;;8.70;73.20;;;;;;9178068;19;20014;-65
2024/03/02 02:20:53;;;;;;;2.80;1.92;;;8.70;73.30;;;;;;9177055;19;20025;-65
2024/03/02 02:24:03;;;;;;;2.75;2.05;;;8.70;73.30;;;;;;9175170;19;20018;-65
2024/03/02 02:27:12;;;;;;;3.65;2.28;;;8.70;73.40;;;;;;9176408;19;20006;-65
2024/03/02 02:30:22;;;;;;;3.88;2.30;;;8.70;73.40;;;;;;9176554;19;20018;-66
2024/03/02 02:33:30;;;;;;;2.97;2.03;;;8.70;73.40;;;;;;9176963;19;20010;-65
2024/03/02 02:36:36;;;;;;;3.08;2.13;;;8.70;73.40;;;;;;9174267;19;20021;-65
2024/03/02 02:39:46;;;;;;;4.03;2.10;;;8.70;73.50;;;;;;9177064;19;20485;-65
2024/03/02 02:42:52;;;;;;;7.07;2.58;;;8.80;74.10;;;;;;9176469;19;20519;-66
2024/03/02 02:46:00;;;;;;;2.65;1.98;;;8.80;73.50;;;;;;9176126;19;20025;-66
2024/03/02 02:49:05;;;;;;;4.40;2.13;;;8.80;73.50;;;;;;9175225;19;20049;-67
2024/03/02 02:52:13;;;;;;;2.90;2.10;;;8.80;73.60;;;;;;9176449;19;20015;-65
2024/03/02 02:55:21;;;;;;;6.22;2.00;;;8.80;73.50;;;;;;9175423;19;20033;-65
2024/03/02 02:58:29;;;;;;;2.78;2.00;;;8.80;73.60;;;;;;9175907;19;20015;-65
2024/03/02 03:01:34;;;;;;;4.15;2.03;;;8.80;73.60;;;;;;9175231;19;20021;-65
2024/03/02 03:04:43;;;;;;;6.07;2.08;;;8.80;73.60;;;;;;9175300;19;20041;-65
2024/03/02 03:07:49;;;;;;;5.78;2.10;;;8.80;73.60;;;;;;9175582;19;20086;-66
2024/03/02 03:11:00;;;;;;;3.03;1.95;;;8.80;73.60;;;;;;9175164;19;20019;-65
2024/03/02 03:14:06;;;;;;;3.05;2.33;;;8.90;73.70;;;;;;9171031;19;20017;-65
2024/03/02 03:17:13;;;;;;;5.18;2.08;;;8.90;73.70;;;;;;9173839;19;20360;-65
2024/03/02 03:20:21;;;;;;;3.97;2.17;;;8.90;73.70;;;;;;9174242;19;20468;-65
2024/03/02 03:23:28;;;;;;;2.88;1.90;;;8.90;73.70;;;;;;9174341;19;20014;-65
2024/03/02 03:26:38;;;;;;;5.80;2.45;;;8.90;73.70;;;;;;9175357;19;20010;-65
2024/03/02 03:29:46;;;;;;;3.83;2.08;;;8.90;73.70;;;;;;9174455;19;20768;-66
2024/03/02 03:32:51;;;;;;;3.17;1.73;;;8.90;73.70;;;;;;9174384;19;20479;-66
2024/03/02 03:35:59;;;;;;;3.38;1.95;;;8.90;74.30;;;;;;9173651;19;20020;-65
2024/03/02 03:39:06;;;;;;;4.80;1.67;;;8.90;73.70;;;;;;9172734;19;20011;-65
2024/03/02 03:42:16;;;;;;;2.15;1.70;;;8.90;73.60;;;;;;9173843;19;20365;-65
2024/03/02 03:45:22;;;;;;;2.75;1.60;;;8.90;73.70;;;;;;9173278;19;20022;-65
2024/03/02 03:48:30;;;;;;;3.38;1.77;;;8.90;73.60;;;;;;9174943;19;20610;-66
2024/03/02 03:51:36;;;;;;;2.20;1.50;;;8.90;73.70;;;;;;9173836;19;20790;-66
2024/03/02 03:54:44;;;;;;;3.08;1.70;;;8.90;73.70;;;;;;9173300;19;20046;-66
2024/03/02 03:57:52;;;;;;;3.42;1.85;;;8.90;73.70;;;;;;9171514;19;20015;-65
2024/03/02 04:01:00;;;;;;;4.15;2.03;;;8.90;73.70;;;;;;9173597;19;20038;-66
2024/03/02 04:04:06;;;;;;;3.25;1.73;;;8.90;73.70;;;;;;9173712;19;20067;-65
2024/03/02 04:07:14;;;;;;;3.78;1.67;;;8.90;73.70;;;;;;9173621;19;20018;-64
2024/03/02 04:10:20;;;;;;;3.53;1.88;;;8.80;73.80;;;;;;9173537;19;20018;-65
2024/03/02 04:13:31;;;;;;;2.55;1.60;;;8.90;73.80;;;;;;9172360;19;20022;-65
2024/03/02 04:16:36;;;;;;;2.50;1.55;;;8.90;73.80;;;;;;9167189;19;20495;-65
2024/03/02 04:19:43;;;;;;;2.55;1.83;;;8.80;73.80;;;;;;9172441;19;20010;-65
2024/03/02 04:22:49;;;;;;;8.70;2.28;;;8.80;73.80;;;;;;9170970;19;20018;-66
2024/03/02 04:25:56;;;;;;;2.75;1.77;;;8.80;73.80;;;;;;9172908;19;20014;-65
2024/03/02 04:29:05;;;;;;;3.05;1.75;;;8.80;73.80;;;;;;9172657;19;20030;-65
2024/03/02 04:32:12;;;;;;;5.30;1.92;;;8.80;73.90;;;;;;9171533;19;20025;-65
2024/03/02 04:35:18;;;;;;;5.47;2.28;;;8.80;73.90;;;;;;9179806;19;20507;-64
2024/03/02 04:38:25;;;;;;;3.22;1.88;;;8.80;73.90;;;;;;9177846;19;20021;-65
2024/03/02 04:41:31;;;;;;;3.95;1.70;;;8.80;73.90;;;;;;9180948;19;20372;-65
2024/03/02 04:44:41;;;;;;;2.72;1.67;;;8.80;73.90;;;;;;9180149;19;20498;-65
2024/03/02 04:47:46;;;;;;;3.92;1.25;;;8.80;73.90;;;;;;9181297;19;20023;-65
2024/03/02 04:50:56;;;;;;;2.72;1.77;;;8.80;74.00;;;;;;9181638;19;20015;-65
2024/03/02 04:54:01;;;;;;;2.95;2.03;;;8.80;74.00;;;;;;9179900;19;20022;-65
2024/03/02 04:57:09;;;;;;;5.20;2.28;;;8.80;74.00;;;;;;9179554;19;20029;-65
2024/03/02 05:00:18;;;;;;;3.58;1.85;;;8.80;73.90;;;;;;9179411;19;20014;-64
2024/03/02 05:03:25;;;;;;;3.08;1.88;;;8.80;74.00;;;;;;9180007;19;20018;-66
2024/03/02 05:06:31;;;;;;;5.70;1.90;;;8.80;74.00;;;;;;9180486;19;20049;-65
2024/03/02 05:09:39;;;;;;;2.95;1.55;;;8.80;74.00;;;;;;9180097;19;20698;-66
2024/03/02 05:12:56;;;;;;;4.22;1.92;;;8.80;74.00;;;;;;9177304;19;20016;-65
2024/03/02 05:16:07;;;;;;;3.03;1.55;;;8.80;74.00;;;;;;9174600;19;20015;-66
2024/03/02 05:19:13;;;;;;;1.95;1.40;;;8.80;74.10;;;;;;9178278;19;20013;-66
2024/03/02 05:22:20;;;;;;;3.10;1.33;;;8.80;74.10;;;;;;9178486;19;20018;-65
2024/03/02 05:25:25;;;;;;;0.95;0.88;;;8.80;74.10;;;;;;9178429;19;20014;-66
2024/03/02 05:28:33;;;;;;;1.92;0.80;;;8.80;74.20;;;;;;9178723;19;20019;-66
2024/03/02 05:31:41;;;;;;;1.63;0.90;;;8.80;74.20;;;;;;9179683;19;20083;-66
2024/03/02 05:34:50;;;;;;;3.50;0.63;;;8.80;74.30;;;;;;9178174;19;20018;-66
2024/03/02 05:37:56;;;;;;;2.63;0.90;;;8.80;74.30;;;;;;9177184;19;20380;-65
2024/03/02 05:41:03;;;;;;;1.15;0.60;;;8.90;74.40;;;;;;9179623;19;20364;-65
2024/03/02 05:44:09;;;;;;;1.42;0.88;;;8.80;74.30;;;;;;9178426;19;20482;-65
2024/03/02 05:47:19;;;;;;;1.05;0.70;;;8.90;74.40;;;;;;9179124;19;20036;-65
2024/03/02 05:50:25;;;;;;;4.40;0.90;;;8.90;74.40;;;;;;9179232;19;20509;-65
2024/03/02 05:53:33;;;;;;;2.30;0.90;;;8.90;74.40;;;;;;9178856;19;20014;-65
2024/03/02 05:56:39;;;;;;;1.13;1.02;;;8.90;74.40;;;;;;9175853;19;20019;-65
2024/03/02 05:59:46;;;;;;;3.95;0.90;;;8.90;74.40;;;;;;9178234;19;20022;-64
2024/03/02 06:02:54;;;;;;;1.95;1.10;;;8.90;74.40;;;;;;9177196;19;20014;-64
2024/03/02 06:06:02;;;;;;;1.15;0.98;;;8.90;74.40;;;;;;9176470;19;20677;-65
2024/03/02 06:09:12;;;;;;;0.82;0.60;;;8.90;74.40;;;;;;9175486;19;20025;-64
2024/03/02 06:12:19;;;;;;;3.78;0.90;;;8.90;74.40;;;;;;9172680;19;20017;-64
2024/03/02 06:15:25;;;;;;;2.15;0.77;;;8.80;74.30;;;;;;9170097;19;20018;-64
2024/03/02 06:18:35;;;;;;;3.15;0.70;;;8.80;74.40;;;;;;9171288;19;20010;-65
2024/03/02 06:21:40;;;;;;;2.08;1.10;;;8.80;74.30;;;;;;9173861;19;20022;-65
2024/03/02 06:24:48;;;;;;;2.03;0.73;;;8.70;74.30;;;;;;9175677;19;20029;-64
2024/03/02 06:27:54;;;;;;;1.90;0.90;;;8.70;74.30;;;;;;9175958;19;20102;-66
2024/03/02 06:31:01;;;;;;;1.17;0.95;;;8.70;74.30;;;;;;9177388;19;20357;-65
2024/03/02 06:34:10;;;;;;;2.35;0.95;;;8.70;74.40;;;;;;9176606;19;20030;-65
2024/03/02 06:37:17;;;;;;;1.75;0.95;;;8.60;74.30;;;;;;9174545;19;20022;-64
2024/03/02 06:40:23;;;;;;;7.47;0.88;;;8.60;74.90;;;;;;9175801;19;20010;-67
2024/03/02 06:43:31;;;;;;;1.38;0.82;;;8.60;74.30;;;;;;9175961;19;20018;-67
2024/03/02 06:46:36;;;;;;;2.47;1.23;;;8.50;74.30;;;;;;9176216;19;20014;-68
2024/03/02 06:49:46;;;;;;;4.43;1.60;;;8.50;74.30;;;;;;9175347;19;20029;-65
2024/03/02 06:52:55;;;;;;;2.97;1.08;;;8.50;74.40;;;;;;9173561;19;20022;-65
2024/03/02 06:56:04;;;;;;;1.45;0.93;;;8.40;74.30;;;;;;9174318;19;20372;-65
2024/03/02 06:59:09;;;;;;;2.40;1.00;;;8.40;74.40;;;;;;9173436;19;20010;-65
2024/03/02 07:02:17;;;;;;;3.88;1.10;;;8.40;74.50;;;;;;9175406;19;20018;-65
2024/03/02 07:05:25;;;;;;;1.20;0.88;;;8.40;74.50;;;;;;9176221;19;20078;-65
2024/03/02 07:08:32;;;;;;;0.77;0.70;;;8.40;74.60;;;;;;9173710;19;20006;-65
2024/03/02 07:11:38;;;;;;;1.90;0.93;;;8.40;74.60;;;;;;9175008;19;20014;-66
2024/03/02 07:15:11;;;;;;;1.67;0.80;;;8.40;74.70;;;;;;9170665;19;20021;-66
2024/03/02 07:18:17;;;;;;;3.72;1.10;;;8.30;74.70;;;;;;9174144;19;20027;-65
2024/03/02 07:21:27;;;;;;;2.15;1.15;;;8.40;74.80;;;;;;9174665;19;20373;-66
2024/03/02 07:24:32;;;;;;;1.52;1.10;;;8.40;74.80;;;;;;9174667;19;20085;-65
2024/03/02 07:27:40;;;;;;;1.58;1.10;;;8.40;75.00;;;;;;9175275;19;20018;-65
2024/03/02 07:30:46;;;;;;;1.17;0.90;;;8.50;75.10;;;;;;9173619;19;20014;-65
2024/03/02 07:33:53;;;;;;;4.22;1.38;;;8.50;75.20;;;;;;9174152;19;20019;-66
2024/03/02 07:37:02;;;;;;;4.20;2.00;;;8.60;75.40;;;;;;9173534;19;20052;-66
2024/03/02 07:40:12;;;;;;;3.95;1.90;;;8.70;75.70;;;;;;9170757;19;20014;-66
2024/03/02 07:43:17;;;;;;;3.85;1.67;;;8.80;75.70;;;;;;9174211;19;20018;-66
2024/03/02 07:46:25;;;;;;;6.65;2.15;;;8.90;75.80;;;;;;9174129;19;20018;-66
2024/03/02 07:49:30;;;;;;;3.95;1.25;;;8.90;75.70;;;;;;9171476;19;20014;-66
2024/03/02 07:52:41;;;;;;;3.60;1.30;;;9.00;75.70;;;;;;9173853;19;20022;-66
2024/03/02 07:55:46;;;;;;;1.73;1.27;;;9.10;75.90;;;;;;9173386;19;20027;-66
2024/03/02 07:59:14;;;;;;;4.70;1.33;;;9.20;75.80;;;;;;9169753;19;20857;-66
2024/03/02 08:02:19;;;;;;;4.10;1.48;;;9.40;76.00;;;;;;9172170;19;20078;-66
2024/03/02 08:05:27;;;;;;;2.13;1.50;;;9.50;76.10;;;;;;9171301;19;20014;-66
2024/03/02 08:08:35;;;;;;;2.58;1.50;;;9.70;76.10;;;;;;9175398;19;20018;-67
2024/03/02 08:11:42;;;;;;;2.70;1.33;;;9.80;76.20;;;;;;9179647;19;20015;-67
2024/03/02 08:14:48;;;;;;;3.10;1.23;;;10.00;76.30;;;;;;9174677;19;20106;-66
2024/03/02 08:17:56;;;;;;;2.63;1.33;;;10.20;76.30;;;;;;9180413;19;20014;-66
2024/03/02 08:21:02;;;;;;;3.17;1.27;;;10.30;76.20;;;;;;9181452;19;20043;-66
2024/03/02 08:24:12;;;;;;;4.70;1.42;;;10.50;76.10;;;;;;9181665;19;20018;-66
2024/03/02 08:27:18;;;;;;;2.70;1.65;;;10.70;76.20;;;;;;9181496;19;20505;-66
2024/03/02 08:30:25;;;;;;;2.78;1.27;;;10.90;76.10;;;;;;9181997;19;20014;-67
2024/03/02 08:33:31;;;;;;;2.97;1.63;;;11.10;76.10;;;;;;9182077;19;20859;-67
2024/03/02 08:36:40;;;;;;;4.97;1.38;;;11.30;76.00;;;;;;9179865;19;20050;-66
2024/03/02 08:39:48;;;;;;;3.88;1.52;;;11.40;75.80;;;;;;9178068;19;20011;-66
2024/03/02 08:42:59;;;;;;;3.22;1.60;;;11.60;76.20;;;;;;9181032;19;20018;-67
2024/03/02 08:46:05;;;;;;;3.70;2.05;;;11.70;75.50;;;;;;9179684;19;20594;-66
2024/03/02 08:49:13;;;;;;;5.05;2.08;;;11.80;75.40;;;;;;9181451;19;20018;-67
2024/03/02 08:52:19;;;;;;;7.75;1.95;;;12.00;75.20;;;;;;9181752;19;20023;-66
2024/03/02 08:55:29;;;;;;;6.45;1.85;;;12.10;75.10;;;;;;9179222;19;20006;-65
2024/03/02 08:58:35;;;;;;;3.33;1.73;;;12.20;74.80;;;;;;9180697;19;20010;-66
2024/03/02 09:01:43;;;;;;;4.13;1.55;;;12.30;74.80;;;;;;9179791;19;20014;-66
2024/03/02 09:04:48;;;;;;;6.13;1.80;;;12.40;74.70;;;;;;9180130;19;20031;-66
2024/03/02 09:07:56;;;;;;;5.50;1.27;;;12.50;74.50;;;;;;9180105;19;20014;-66
2024/03/02 09:11:04;;;;;;;2.17;1.20;;;12.60;74.40;;;;;;9180017;19;20018;-66
2024/03/02 09:14:12;;;;;;;2.75;1.30;;;12.70;74.10;;;;;;9175114;19;20014;-67
2024/03/02 09:17:17;;;;;;;2.70;1.45;;;12.80;74.00;;;;;;9178640;19;20014;-68
2024/03/02 09:20:25;;;;;;;3.50;1.70;;;12.80;73.80;;;;;;9176913;19;20022;-67
2024/03/02 09:23:30;;;;;;;8.85;1.38;;;12.80;73.60;;;;;;9179987;19;20562;-66
2024/03/02 09:26:40;;;;;;;8.52;1.60;;;12.80;73.40;;;;;;9180021;19;20018;-67
2024/03/02 09:29:46;;;;;;;4.40;1.30;;;12.80;73.20;;;;;;9179321;19;20022;-65
2024/03/02 09:32:53;;;;;;;4.40;1.30;;;12.80;73.20;;;;;;9179547;19;20015;-66
2024/03/02 09:36:22;;;;;;;2.70;1.05;;;12.80;73.00;;;;;;9179931;19;20014;-65
2024/03/02 09:39:30;;;;;;;3.60;1.30;;;12.90;73.00;;;;;;9175466;19;20026;-65
2024/03/02 09:42:39;;;;;;;2.28;1.30;;;12.90;73.00;;;;;;9179292;19;20018;-65
2024/03/02 09:45:47;;;;;;;6.90;2.10;;;12.90;72.80;;;;;;9178228;19;20361;-65
2024/03/02 09:48:53;;;;;;;10.85;2.05;;;12.90;72.90;;;;;;9178981;19;20018;-65
2024/03/02 09:52:01;;;;;;;2.75;1.40;;;12.90;72.70;;;;;;9177560;19;20015;-65
2024/03/02 09:55:08;;;;;;;7.53;2.40;;;13.00;72.80;;;;;;9178198;19;20535;-64
2024/03/02 09:58:18;;;;;;;5.28;2.03;;;13.00;72.70;;;;;;9176914;19;20018;-66
2024/03/02 10:01:23;;;;;;;9.70;1.98;;;13.00;72.70;;;;;;9174963;19;20018;-65
2024/03/02 10:04:35;;;;;;;4.60;1.33;;;13.10;73.00;;;;;;9177428;19;20488;-66
2024/03/02 10:07:41;;;;;;;9.88;2.10;;;13.10;72.40;;;;;;9178759;19;20890;-65
2024/03/02 10:10:48;;;;;;;6.38;1.80;;;13.10;72.40;;;;;;9176576;19;20015;-66
2024/03/02 10:14:07;;;;;;;14.65;2.97;;;13.20;72.40;;;;;;9171693;19;20007;-65
2024/03/02 10:17:16;;;;;;;7.65;2.30;;;13.30;72.20;;;;;;9177936;19;20368;-65
2024/03/02 10:20:25;;;;;;;10.75;2.95;;;13.30;72.40;;;;;;9174691;19;20042;-65
2024/03/02 10:23:33;;;;;;;3.58;1.77;;;13.30;72.30;;;;;;9177529;19;20384;-66
2024/03/02 10:26:44;;;;;;;3.15;1.70;;;13.50;72.40;;;;;;9176851;19;20029;-67
2024/03/02 10:29:54;;;;;;;4.00;1.67;;;13.50;72.20;;;;;;9176364;19;20022;-65
2024/03/02 10:33:00;;;;;;;5.45;2.03;;;13.70;72.20;;;;;;9174494;19;20014;-66
2024/03/02 10:36:08;;;;;;;6.72;2.28;;;13.80;72.00;;;;;;9176992;19;20400;-68
2024/03/02 10:39:16;;;;;;;5.68;1.67;;;13.90;71.80;;;;;;9176779;19;20018;-66
2024/03/02 10:42:25;;;;;;;3.08;1.40;;;13.90;71.40;;;;;;9175573;19;20022;-65
2024/03/02 10:45:34;;;;;;;3.95;1.42;;;14.00;71.40;;;;;;9175716;19;20034;-65
2024/03/02 10:48:44;;;;;;;12.15;2.65;;;14.10;71.30;;;;;;9174651;19;20353;-65
2024/03/02 10:51:49;;;;;;;3.38;1.23;;;14.20;71.30;;;;;;9175193;19;20025;-65
2024/03/02 10:54:57;;;;;;;5.15;1.10;;;14.30;71.10;;;;;;9175700;19;20014;-65
2024/03/02 10:58:07;;;;;;;2.72;1.92;;;14.40;71.00;;;;;;9176398;19;20039;-66
2024/03/02 11:01:17;;;;;;;3.35;1.10;;;14.60;70.80;;;;;;9173220;19;20010;-65
2024/03/02 11:04:25;;;;;;;1.65;1.20;;;14.60;70.40;;;;;;9175581;19;20022;-65
2024/03/02 11:07:34;;;;;;;1.77;0.93;;;14.70;70.30;;;;;;9176202;19;20018;-66
2024/03/02 11:10:44;;;;;;;2.97;1.00;;;14.80;70.30;;;;;;9172812;19;20081;-66
2024/03/02 11:13:52;;;;;;;3.25;0.90;;;14.90;70.10;;;;;;9170276;19;20014;-65
2024/03/02 11:17:03;;;;;;;14.02;0.80;;;15.00;70.00;;;;;;9174976;19;20018;-65
2024/03/02 11:20:12;;;;;;;1.38;1.05;;;15.10;70.30;;;;;;9174642;19;20022;-66
2024/03/02 11:23:18;;;;;;;5.10;1.30;;;15.20;69.70;;;;;;9174071;19;20007;-65
2024/03/02 11:26:28;;;;;;;2.15;1.15;;;15.30;69.50;;;;;;9173712;19;20014;-66
2024/03/02 11:29:47;;;;;;;3.80;1.08;;;15.40;69.10;;;;;;9174661;19;20010;-67
2024/03/02 11:33:00;;;;;;;5.00;1.15;;;15.40;68.60;;;;;;9174194;19;20019;-66
2024/03/02 11:36:08;;;;;;;2.28;1.70;;;15.50;68.90;;;;;;9173736;19;20059;-65
2024/03/02 11:39:18;;;;;;;5.90;1.27;;;15.50;68.90;;;;;;9175093;19;20019;-66
2024/03/02 11:42:24;;;;;;;4.93;1.42;;;15.60;68.80;;;;;;9175310;19;20086;-66
2024/03/02 11:45:33;;;;;;;3.25;1.55;;;15.60;68.50;;;;;;9189389;19;20015;-65
2024/03/02 11:48:42;;;;;;;4.72;1.38;;;15.60;68.50;;;;;;9191956;19;20019;-66
2024/03/02 11:52:03;;;;;;;5.60;1.42;;;15.60;68.10;;;;;;9192133;19;20026;-65
2024/03/02 11:55:11;;;;;;;2.30;1.30;;;15.60;68.00;;;;;;9191543;19;20010;-65
2024/03/02 11:58:20;;;;;;;3.97;1.52;;;15.60;68.10;;;;;;9191463;19;20025;-65
2024/03/02 12:01:26;;;;;;;7.95;1.60;;;15.70;68.70;;;;;;9190432;19;20435;-65
2024/03/02 12:04:37;;;;;;;5.15;1.55;;;15.70;68.00;;;;;;9191484;19;20830;-65
2024/03/02 12:07:46;;;;;;;17.67;2.25;;;15.80;67.90;;;;;;9190499;19;20014;-65
2024/03/02 12:11:02;;;;;;;5.50;1.83;;;15.80;67.80;;;;;;9190725;19;20530;-65
2024/03/02 12:14:15;;;;;;;6.18;2.03;;;15.90;67.40;;;;;;9187166;19;20018;-66
2024/03/02 12:17:22;;;;;;;8.55;1.70;;;15.90;67.30;;;;;;9191391;19;20022;-66
2024/03/02 12:20:32;;;;;;;4.75;1.60;;;15.90;67.30;;;;;;9190084;19;20022;-66
2024/03/02 12:23:39;;;;;;;6.50;2.03;;;15.90;66.80;;;;;;9190714;19;20014;-66
2024/03/02 12:26:46;;;;;;;4.70;1.90;;;15.90;67.00;;;;;;9182899;19;20703;-66
2024/03/02 12:29:55;;;;;;;42.53;8.50;;;15.90;66.90;;;;;;9188725;19;20037;-67
2024/03/02 12:33:00;;;;;;;2.47;1.42;;;15.80;66.80;;;;;;9189861;19;20014;-66
2024/03/02 12:36:12;;;;;;;3.40;1.58;;;15.80;66.70;;;;;;9190230;19;20077;-65
2024/03/02 12:39:18;;;;;;;5.10;1.83;;;15.90;66.70;;;;;;9191039;19;20018;-65
2024/03/02 12:42:27;;;;;;;3.05;1.50;;;15.90;66.80;;;;;;9188118;19;20011;-65
2024/03/02 12:45:32;;;;;;;3.88;1.80;;;15.90;66.70;;;;;;9188477;19;20014;-65
2024/03/02 12:48:41;;;;;;;2.38;1.30;;;16.00;66.70;;;;;;9188986;19;20018;-66
2024/03/02 12:51:53;;;;;;;4.18;1.75;;;16.00;66.40;;;;;;9189224;19;20010;-65
2024/03/02 12:55:03;;;;;;;5.53;1.75;;;16.00;66.20;;;;;;9182350;19;20022;-65
2024/03/02 12:58:09;;;;;;;3.25;1.27;;;16.00;66.20;;;;;;9179994;19;20464;-64
2024/03/02 13:01:18;;;;;;;3.30;1.20;;;16.00;66.00;;;;;;9179936;19;20490;-65
2024/03/02 13:04:28;;;;;;;2.80;1.30;;;16.00;65.70;;;;;;9180166;19;20107;-66
2024/03/02 13:07:38;;;;;;;6.60;1.02;;;16.00;65.50;;;;;;9178334;19;20027;-64
2024/03/02 13:10:44;;;;;;;2.22;1.45;;;15.90;65.20;;;;;;9179564;19;20018;-64
2024/03/02 13:13:52;;;;;;;7.07;1.33;;;15.80;65.40;;;;;;9175510;19;20010;-64
2024/03/02 13:17:00;;;;;;;3.08;1.00;;;15.80;65.20;;;;;;9179867;19;20018;-65
2024/03/02 13:20:10;;;;;;;3.53;1.17;;;15.70;65.00;;;;;;9179322;19;20113;-65
2024/03/02 13:23:20;;;;;;;1.95;1.13;;;15.70;65.10;;;;;;9176974;19;20039;-64
2024/03/02 13:26:27;;;;;;;2.05;1.02;;;15.60;65.00;;;;;;9179833;19;20022;-65
2024/03/02 13:29:33;;;;;;;5.10;1.17;;;15.60;65.20;;;;;;9178722;19;20577;-66
2024/03/02 13:32:41;;;;;;;2.80;1.02;;;15.50;65.00;;;;;;9179302;19;20018;-65
2024/03/02 13:35:46;;;;;;;2.53;1.15;;;15.50;65.10;;;;;;9179099;19;20018;-66
2024/03/02 13:38:58;;;;;;;1.92;1.17;;;15.40;65.00;;;;;;9175515;19;20015;-65
2024/03/02 13:42:06;;;;;;;2.10;0.98;;;15.40;64.80;;;;;;9177285;19;20015;-65
2024/03/02 13:45:14;;;;;;;4.70;1.80;;;15.40;64.90;;;;;;9177920;19;20026;-65
2024/03/02 13:48:19;;;;;;;1.92;1.30;;;15.40;65.00;;;;;;9178271;19;20017;-65
2024/03/02 13:51:27;;;;;;;3.75;1.17;;;15.30;65.00;;;;;;9178167;19;20026;-64
2024/03/02 13:54:39;;;;;;;3.13;1.20;;;15.30;65.00;;;;;;9177512;19;20015;-65
2024/03/02 13:57:47;;;;;;;4.53;1.55;;;15.30;64.90;;;;;;9177400;19;20529;-66
2024/03/02 14:00:52;;;;;;;3.33;1.58;;;15.20;65.10;;;;;;9175913;19;20011;-65
2024/03/02 14:04:00;;;;;;;5.53;1.23;;;15.20;65.00;;;;;;9174295;19;20010;-65
2024/03/02 14:07:07;;;;;;;2.95;1.05;;;15.10;64.80;;;;;;9167377;19;20090;-66
2024/03/02 14:10:22;;;;;;;3.63;1.40;;;15.10;65.50;;;;;;9176366;19;20017;-65
2024/03/02 14:13:27;;;;;;;6.20;1.20;;;15.10;64.70;;;;;;9176803;19;20047;-66
2024/03/02 14:16:35;;;;;;;2.13;1.38;;;15.10;64.90;;;;;;9176668;19;20348;-65
2024/03/02 14:19:40;;;;;;;4.43;1.80;;;15.10;64.70;;;;;;9176832;19;20014;-65
2024/03/02 14:22:48;;;;;;;2.97;1.00;;;15.10;64.80;;;;;;9175777;19;20345;-64
2024/03/02 14:25:56;;;;;;;6.80;1.95;;;15.00;64.70;;;;;;9177299;19;20010;-65
2024/03/02 14:29:03;;;;;;;1.30;1.02;;;15.00;64.60;;;;;;9176584;19;20018;-65
2024/03/02 14:32:09;;;;;;;5.25;1.20;;;15.00;64.70;;;;;;9176165;19;20476;-65
2024/03/02 14:35:18;;;;;;;3.17;1.30;;;14.90;64.60;;;;;;9175513;19;20025;-66
2024/03/02 14:38:24;;;;;;;6.60;1.88;;;15.00;64.80;;;;;;9167620;19;20058;-66
2024/03/02 14:41:34;;;;;;;4.78;1.63;;;15.00;64.80;;;;;;9174086;19;20473;-65
2024/03/02 14:44:40;;;;;;;4.78;1.73;;;14.90;64.70;;;;;;9175855;19;20018;-65
2024/03/02 14:47:47;;;;;;;5.05;1.40;;;15.00;64.70;;;;;;9174807;19;20018;-65
2024/03/02 14:50:53;;;;;;;2.45;1.33;;;14.90;64.70;;;;;;9177133;19;20010;-66
2024/03/02 14:54:01;;;;;;;6.75;1.40;;;15.00;64.80;;;;;;9175922;19;20495;-65
2024/03/02 14:57:10;;;;;;;5.47;1.70;;;15.00;64.70;;;;;;9176406;19;20014;-65
2024/03/02 15:00:18;;;;;;;6.55;1.88;;;15.00;64.60;;;;;;9176196;19;20042;-65
2024/03/02 15:03:24;;;;;;;2.60;1.08;;;15.10;64.70;;;;;;9173363;19;20022;-65
2024/03/02 15:06:31;;;;;;;2.78;1.33;;;15.10;64.60;;;;;;9171618;19;20475;-65
2024/03/02 15:09:37;;;;;;;4.03;1.75;;;15.10;64.60;;;;;;9175670;19;20022;-65
2024/03/02 15:12:47;;;;;;;4.65;1.23;;;15.10;64.50;;;;;;9176167;19;20010;-65
2024/03/02 15:15:53;;;;;;;2.45;1.20;;;15.10;64.40;;;;;;9174905;19;20015;-65
2024/03/02 15:19:01;;;;;;;3.55;1.20;;;15.20;64.50;;;;;;9174080;19;20014;-66
2024/03/02 15:22:08;;;;;;;7.43;1.05;;;15.10;64.30;;;;;;9174059;19;20666;-65
2024/03/02 15:25:16;;;;;;;2.50;1.50;;;15.20;64.30;;;;;;9174972;19;20018;-65
2024/03/02 15:28:24;;;;;;;3.63;1.15;;;15.20;64.30;;;;;;9172932;19;20086;-65
2024/03/02 15:31:31;;;;;;;3.20;1.15;;;15.20;64.20;;;;;;9173215;19;20022;-64
2024/03/02 15:34:37;;;;;;;2.88;1.00;;;15.20;64.20;;;;;;9174357;19;20086;-64
2024/03/02 15:37:45;;;;;;;4.20;1.30;;;15.20;64.20;;;;;;9173320;19;20019;-65
2024/03/02 15:40:50;;;;;;;3.40;1.20;;;15.20;64.20;;;;;;9172161;19;20021;-70
2024/03/02 15:44:01;;;;;;;2.28;1.00;;;15.20;64.10;;;;;;9170471;19;20022;-66
2024/03/02 15:47:07;;;;;;;3.47;0.98;;;15.20;64.10;;;;;;9173193;19;20015;-68
2024/03/02 15:50:15;;;;;;;3.15;1.35;;;15.10;64.10;;;;;;9172992;19;20014;-66
2024/03/02 15:53:20;;;;;;;5.80;1.83;;;15.10;64.10;;;;;;9170393;19;20019;-66
2024/03/02 15:56:28;;;;;;;2.35;1.42;;;15.10;64.10;;;;;;9173591;19;20541;-66
2024/03/02 15:59:36;;;;;;;3.30;1.60;;;15.10;64.00;;;;;;9170650;19;20015;-66
2024/03/02 16:02:43;;;;;;;7.03;1.80;;;15.00;63.90;;;;;;9170443;19;20029;-65
2024/03/02 16:05:49;;;;;;;4.40;1.13;;;15.00;64.10;;;;;;9173918;19;20789;-65
2024/03/02 16:08:59;;;;;;;6.55;2.15;;;14.90;63.90;;;;;;9168868;19;20014;-66
2024/03/02 16:12:05;;;;;;;3.65;1.67;;;14.90;64.00;;;;;;9172697;19;20014;-65
2024/03/02 16:15:15;;;;;;;4.72;1.60;;;14.80;64.00;;;;;;9172828;19;20026;-66
2024/03/02 16:18:21;;;;;;;1.92;1.10;;;14.70;64.00;;;;;;9173210;19;20755;-65
2024/03/02 16:21:28;;;;;;;6.35;1.67;;;14.70;64.20;;;;;;9173175;19;20019;-66
2024/03/02 16:24:34;;;;;;;3.20;1.50;;;14.70;64.20;;;;;;9170422;19;20011;-65
2024/03/02 16:27:42;;;;;;;5.13;1.70;;;14.60;64.20;;;;;;9172250;19;20022;-65